Time,TemperatureF,DewpointF,PressureIn,WindDirection,WindDirectionDegrees,WindSpeedMPH,WindSpeedGustMPH,Humidity,HourlyPrecipIn,Conditions,Clouds,dailyrainin,SoftwareType,DateUTC
2013-05-22 00:07:00,45.3,42.5,30.01,WSW,243,19.0,31.0,90,0.00,,,0.54,Wunderground v.1.15,2013-05-22 07:07:00,
2013-05-22 00:16:00,45.2,43.0,30.02,West,264,15.0,21.0,92,0.10,,,0.56,Wunderground v.1.15,2013-05-22 07:16:00,
2013-05-22 00:26:00,44.5,42.0,30.02,WSW,244,14.0,22.0,91,0.06,,,0.57,Wunderground v.1.15,2013-05-22 07:26:00,
2013-05-22 00:32:00,44.3,42.1,30.02,WSW,256,11.0,11.0,92,0.06,,,0.57,Wunderground v.1.15,2013-05-22 07:32:00,
2013-05-22 00:41:00,44.5,42.3,30.02,West,261,8.0,11.0,92,0.05,,,0.58,Wunderground v.1.15,2013-05-22 07:41:00,
2013-05-22 00:52:00,45.0,42.8,30.02,WSW,254,11.0,16.0,92,0.04,,,0.58,Wunderground v.1.15,2013-05-22 07:52:00,
2013-05-22 01:01:00,44.6,42.4,30.02,WSW,258,8.0,8.0,92,0.04,,,0.59,Wunderground v.1.15,2013-05-22 08:01:00,
2013-05-22 01:12:00,44.9,42.7,30.01,WSW,243,8.0,8.0,92,0.00,,,0.59,Wunderground v.1.15,2013-05-22 08:12:00,
2013-05-22 01:22:00,45.0,42.8,30.01,WSW,242,9.0,15.0,92,0.00,,,0.59,Wunderground v.1.15,2013-05-22 08:22:00,
2013-05-22 01:32:00,44.9,42.7,30.02,SW,229,8.0,8.0,92,0.00,,,0.59,Wunderground v.1.15,2013-05-22 08:32:00,
2013-05-22 01:37:00,45.1,42.9,30.02,WSW,243,7.0,12.0,92,0.00,,,0.59,Wunderground v.1.15,2013-05-22 08:37:00,
2013-05-22 01:42:00,45.2,43.0,30.02,West,266,6.0,9.0,92,0.00,,,0.59,Wunderground v.1.15,2013-05-22 08:42:00,
2013-05-22 01:52:00,45.3,43.1,30.02,West,274,8.0,12.0,92,0.00,,,0.59,Wunderground v.1.15,2013-05-22 08:52:00,
2013-05-22 02:01:00,45.5,43.3,30.01,West,274,8.0,11.0,92,0.00,,,0.59,Wunderground v.1.15,2013-05-22 09:01:00,
2013-05-22 02:12:00,45.8,43.6,30.01,West,268,8.0,8.0,92,0.00,,,0.59,Wunderground v.1.15,2013-05-22 09:12:00,
2013-05-22 02:22:00,45.8,43.6,30.01,WSW,248,7.0,11.0,92,0.00,,,0.59,Wunderground v.1.15,2013-05-22 09:22:00,
2013-05-22 02:31:00,45.8,43.9,30.01,West,259,7.0,12.0,93,0.17,,,0.60,Wunderground v.1.15,2013-05-22 09:31:00,
2013-05-22 02:37:00,45.5,43.6,30.01,West,265,9.0,17.0,93,0.13,,,0.62,Wunderground v.1.15,2013-05-22 09:37:00,
2013-05-22 02:46:00,45.3,43.4,30.01,SW,236,8.0,12.0,93,0.06,,,0.62,Wunderground v.1.15,2013-05-22 09:46:00,
2013-05-22 02:56:00,44.5,42.6,30.01,WSW,245,9.0,15.0,93,0.05,,,0.63,Wunderground v.1.15,2013-05-22 09:56:00,
2013-05-22 03:06:00,44.6,42.7,30.01,WSW,253,7.0,11.0,93,0.00,,,0.63,Wunderground v.1.15,2013-05-22 10:06:00,
2013-05-22 03:12:00,44.6,42.7,30.01,WSW,237,7.0,10.0,93,0.00,,,0.63,Wunderground v.1.15,2013-05-22 10:12:00,
2013-05-22 03:21:00,44.7,42.8,30.00,SW,233,6.0,10.0,93,0.14,,,0.66,Wunderground v.1.15,2013-05-22 10:21:00,
2013-05-22 03:32:00,44.9,43.0,30.00,WSW,238,6.0,6.0,93,0.05,,,0.66,Wunderground v.1.15,2013-05-22 10:32:00,
2013-05-22 03:41:00,45.2,43.3,30.00,SSW,203,5.0,8.0,93,0.05,,,0.67,Wunderground v.1.15,2013-05-22 10:41:00,
2013-05-22 03:52:00,45.4,43.5,30.00,SW,215,6.0,10.0,93,0.00,,,0.67,Wunderground v.1.15,2013-05-22 10:52:00,
2013-05-22 04:01:00,45.4,43.5,30.00,SSW,207,6.0,12.0,93,0.00,,,0.68,Wunderground v.1.15,2013-05-22 11:01:00,
2013-05-22 04:12:00,45.5,43.6,30.00,SSW,198,8.0,14.0,93,0.00,,,0.68,Wunderground v.1.15,2013-05-22 11:12:00,
2013-05-22 04:22:00,45.7,43.8,30.00,SSW,211,7.0,11.0,93,0.00,,,0.68,Wunderground v.1.15,2013-05-22 11:22:00,
2013-05-22 04:32:00,45.6,43.7,30.00,SSW,202,8.0,8.0,93,0.00,,,0.68,Wunderground v.1.15,2013-05-22 11:32:00,
2013-05-22 04:41:00,45.6,43.7,30.00,WSW,238,6.0,10.0,93,0.00,,,0.68,Wunderground v.1.15,2013-05-22 11:41:00,
2013-05-22 04:47:00,45.5,43.6,30.00,SW,217,7.0,10.0,93,0.00,,,0.68,Wunderground v.1.15,2013-05-22 11:47:00,
2013-05-22 04:56:00,45.1,43.2,30.00,SSW,211,4.0,8.0,93,0.00,,,0.68,Wunderground v.1.15,2013-05-22 11:56:00,
2013-05-22 05:02:00,45.0,43.1,30.00,SSW,208,3.0,3.0,93,0.00,,,0.68,Wunderground v.1.15,2013-05-22 12:02:00,
2013-05-22 05:11:00,45.2,43.3,30.00,SSW,207,3.0,7.0,93,0.00,,,0.68,Wunderground v.1.15,2013-05-22 12:11:00,
2013-05-22 05:21:00,45.5,43.6,29.99,SSW,195,4.0,9.0,93,0.00,,,0.68,Wunderground v.1.15,2013-05-22 12:21:00,
2013-05-22 05:27:00,45.5,43.6,29.99,SSW,200,3.0,9.0,93,0.00,,,0.68,Wunderground v.1.15,2013-05-22 12:27:00,
2013-05-22 05:36:00,45.4,43.5,29.99,South,191,2.0,5.0,93,0.00,,,0.68,Wunderground v.1.15,2013-05-22 12:36:00,
2013-05-22 05:46:00,45.4,43.5,29.99,South,191,2.0,4.0,93,0.00,,,0.68,Wunderground v.1.15,2013-05-22 12:46:00,
2013-05-22 05:51:00,45.4,43.8,29.99,South,183,2.0,5.0,94,0.00,,,0.68,Wunderground v.1.15,2013-05-22 12:51:00,
2013-05-22 05:57:00,45.5,43.9,29.99,SSE,162,3.0,7.0,94,0.00,,,0.68,Wunderground v.1.15,2013-05-22 12:57:00,
2013-05-22 06:07:00,45.6,44.0,29.99,SSE,151,5.0,7.0,94,0.00,,,0.69,Wunderground v.1.15,2013-05-22 13:07:00,
2013-05-22 06:16:00,45.7,44.1,29.98,SW,233,3.0,9.0,94,0.00,,,0.69,Wunderground v.1.15,2013-05-22 13:16:00,
2013-05-22 06:22:00,46.1,44.5,29.98,SW,227,6.0,6.0,94,0.00,,,0.69,Wunderground v.1.15,2013-05-22 13:22:00,
2013-05-22 06:32:00,46.2,44.6,29.98,SSW,205,7.0,7.0,94,0.00,,,0.69,Wunderground v.1.15,2013-05-22 13:32:00,
2013-05-22 06:41:00,46.3,44.7,29.98,SSW,208,8.0,8.0,94,0.00,,,0.69,Wunderground v.1.15,2013-05-22 13:41:00,
2013-05-22 06:47:00,46.3,44.7,29.98,SSW,205,7.0,11.0,94,0.00,,,0.69,Wunderground v.1.15,2013-05-22 13:47:00,
2013-05-22 06:52:00,46.4,44.8,29.98,SSW,201,6.0,6.0,94,0.00,,,0.69,Wunderground v.1.15,2013-05-22 13:52:00,
2013-05-22 07:01:00,46.6,45.0,29.98,SSW,207,4.0,9.0,94,0.00,,,0.69,Wunderground v.1.15,2013-05-22 14:01:00,
2013-05-22 07:12:00,46.5,44.9,29.98,SSW,209,6.0,10.0,94,0.00,,,0.69,Wunderground v.1.15,2013-05-22 14:12:00,
2013-05-22 07:21:00,46.4,44.8,29.98,South,185,5.0,10.0,94,0.00,,,0.69,Wunderground v.1.15,2013-05-22 14:21:00,
2013-05-22 07:31:00,46.1,44.5,29.98,SSE,167,6.0,10.0,94,0.00,,,0.69,Wunderground v.1.15,2013-05-22 14:31:00,
2013-05-22 07:37:00,46.2,44.6,29.98,South,178,6.0,12.0,94,0.00,,,0.70,Wunderground v.1.15,2013-05-22 14:37:00,
2013-05-22 07:46:00,46.3,44.9,29.98,SSE,159,4.0,9.0,95,0.00,,,0.70,Wunderground v.1.15,2013-05-22 14:46:00,
2013-05-22 07:56:00,46.4,45.0,29.98,SSW,203,5.0,6.0,95,0.00,,,0.70,Wunderground v.1.15,2013-05-22 14:56:00,
2013-05-22 08:02:00,46.5,45.1,29.98,SSW,198,5.0,11.0,95,0.00,,,0.00,Wunderground v.1.15,2013-05-22 15:02:00,
2013-05-22 08:07:00,46.5,45.1,29.98,SSW,198,4.0,11.0,95,0.00,,,0.00,Wunderground v.1.15,2013-05-22 15:07:00,
2013-05-22 08:16:00,46.9,45.5,29.98,SSW,195,4.0,7.0,95,0.00,,,0.00,Wunderground v.1.15,2013-05-22 15:16:00,
2013-05-22 08:22:00,47.2,45.8,29.98,SW,222,4.0,8.0,95,0.00,,,0.00,Wunderground v.1.15,2013-05-22 15:22:00,
2013-05-22 08:32:00,47.1,45.7,29.98,SSW,203,7.0,13.0,95,0.00,,,0.00,Wunderground v.1.15,2013-05-22 15:32:00,
2013-05-22 08:42:00,47.1,45.7,29.98,South,189,8.0,8.0,95,0.00,,,0.00,Wunderground v.1.15,2013-05-22 15:42:00,
2013-05-22 08:52:00,47.3,45.7,29.98,WSW,237,7.0,12.0,94,0.00,,,0.00,Wunderground v.1.15,2013-05-22 15:52:00,
2013-05-22 09:01:00,47.5,46.1,29.98,SW,221,7.0,13.0,95,0.00,,,0.00,Wunderground v.1.15,2013-05-22 16:01:00,
2013-05-22 09:12:00,47.6,46.2,29.98,SW,232,8.0,8.0,95,0.00,,,0.00,Wunderground v.1.15,2013-05-22 16:12:00,
2013-05-22 09:22:00,47.4,45.8,29.98,SW,219,8.0,15.0,94,0.00,,,0.00,Wunderground v.1.15,2013-05-22 16:22:00,
2013-05-22 09:32:00,47.6,46.0,29.98,South,178,8.0,14.0,94,0.00,,,0.00,Wunderground v.1.15,2013-05-22 16:32:00,
2013-05-22 09:41:00,47.9,46.3,29.98,SW,214,8.0,17.0,94,0.00,,,0.01,Wunderground v.1.15,2013-05-22 16:41:00,
2013-05-22 09:52:00,48.2,46.8,29.98,SSW,208,8.0,15.0,95,0.04,,,0.02,Wunderground v.1.15,2013-05-22 16:52:00,
2013-05-22 10:01:00,48.4,47.0,29.98,SSW,192,8.0,8.0,95,0.04,,,0.02,Wunderground v.1.15,2013-05-22 17:01:00,
2013-05-22 10:07:00,48.3,46.9,29.98,SW,220,9.0,9.0,95,0.00,,,0.02,Wunderground v.1.15,2013-05-22 17:07:00,
2013-05-22 10:17:00,48.5,47.1,29.98,SSW,207,7.0,11.0,95,0.00,,,0.02,Wunderground v.1.15,2013-05-22 17:17:00,
2013-05-22 10:26:00,48.0,46.6,29.98,SW,229,8.0,8.0,95,0.00,,,0.02,Wunderground v.1.15,2013-05-22 17:26:00,
2013-05-22 10:32:00,48.1,46.7,29.98,SW,229,8.0,13.0,95,0.00,,,0.02,Wunderground v.1.15,2013-05-22 17:32:00,
2013-05-22 10:41:00,47.9,46.3,29.98,SW,217,8.0,8.0,94,0.00,,,0.03,Wunderground v.1.15,2013-05-22 17:41:00,
2013-05-22 10:47:00,47.7,46.1,29.98,SW,234,8.0,12.0,94,0.06,,,0.04,Wunderground v.1.15,2013-05-22 17:47:00,
2013-05-22 10:52:00,47.7,46.3,29.98,WSW,244,8.0,13.0,95,0.06,,,0.04,Wunderground v.1.15,2013-05-22 17:52:00,
2013-05-22 11:02:00,47.8,46.4,29.98,SW,214,8.0,13.0,95,0.04,,,0.04,Wunderground v.1.15,2013-05-22 18:02:00,
2013-05-22 11:07:00,47.8,46.4,29.98,SW,226,8.0,14.0,95,0.00,,,0.05,Wunderground v.1.15,2013-05-22 18:07:00,
2013-05-22 11:16:00,47.2,45.8,29.98,SSW,212,9.0,13.0,95,0.00,,,0.05,Wunderground v.1.15,2013-05-22 18:16:00,
2013-05-22 11:22:00,47.5,46.1,29.99,SW,232,7.0,7.0,95,0.04,,,0.06,Wunderground v.1.15,2013-05-22 18:22:00,
2013-05-22 11:32:00,47.6,46.2,29.99,SSW,194,7.0,12.0,95,0.04,,,0.06,Wunderground v.1.15,2013-05-22 18:32:00,
2013-05-22 11:41:00,47.7,46.3,29.99,SSW,207,8.0,15.0,95,0.00,,,0.07,Wunderground v.1.15,2013-05-22 18:41:00,
2013-05-22 11:52:00,47.7,46.3,29.99,SW,234,9.0,9.0,95,0.09,,,0.08,Wunderground v.1.15,2013-05-22 18:52:00,
2013-05-22 12:01:00,47.5,46.1,29.99,WSW,240,7.0,7.0,95,0.26,,,0.12,Wunderground v.1.15,2013-05-22 19:01:00,
2013-05-22 12:11:00,47.7,46.6,29.99,WSW,253,8.0,12.0,96,0.09,,,0.13,Wunderground v.1.15,2013-05-22 19:11:00,
2013-05-22 12:17:00,47.9,46.8,29.99,WSW,242,8.0,15.0,96,0.06,,,0.13,Wunderground v.1.15,2013-05-22 19:17:00,
2013-05-22 12:27:00,48.0,46.9,29.99,SW,226,7.0,11.0,96,0.00,,,0.13,Wunderground v.1.15,2013-05-22 19:27:00,
2013-05-22 12:36:00,48.4,47.3,29.99,SW,221,6.0,10.0,96,0.00,,,0.13,Wunderground v.1.15,2013-05-22 19:36:00,
2013-05-22 12:47:00,49.0,47.9,29.99,SW,232,5.0,7.0,96,0.00,,,0.13,Wunderground v.1.15,2013-05-22 19:47:00,
2013-05-22 12:56:00,49.2,48.1,29.99,SW,228,5.0,9.0,96,0.00,,,0.13,Wunderground v.1.15,2013-05-22 19:56:00,
2013-05-22 13:07:00,49.0,47.6,29.99,SW,217,6.0,6.0,95,0.00,,,0.13,Wunderground v.1.15,2013-05-22 20:07:00,
2013-05-22 13:16:00,48.7,47.6,29.99,SSW,204,7.0,11.0,96,0.00,,,0.13,Wunderground v.1.15,2013-05-22 20:16:00,
2013-05-22 13:27:00,48.7,47.6,29.99,SW,225,7.0,10.0,96,0.00,,,0.13,Wunderground v.1.15,2013-05-22 20:27:00,
2013-05-22 13:37:00,48.3,47.2,29.99,West,269,7.0,14.0,96,0.12,,,0.16,Wunderground v.1.15,2013-05-22 20:37:00,
2013-05-22 13:47:00,48.6,47.5,29.99,SW,229,6.0,13.0,96,0.05,,,0.16,Wunderground v.1.15,2013-05-22 20:47:00,
2013-05-22 13:57:00,49.1,48.0,29.99,WSW,240,5.0,9.0,96,0.00,,,0.16,Wunderground v.1.15,2013-05-22 20:57:00,
2013-05-22 14:07:00,49.0,47.9,29.99,West,260,7.0,15.0,96,0.00,,,0.16,Wunderground v.1.15,2013-05-22 21:07:00,
2013-05-22 14:16:00,48.6,47.5,30.00,WSW,254,7.0,12.0,96,0.08,,,0.17,Wunderground v.1.15,2013-05-22 21:16:00,
2013-05-22 14:22:00,48.7,47.6,30.00,WSW,252,5.0,7.0,96,0.14,,,0.19,Wunderground v.1.15,2013-05-22 21:22:00,
2013-05-22 14:31:00,48.4,47.3,30.00,WSW,246,5.0,9.0,96,0.11,,,0.20,Wunderground v.1.15,2013-05-22 21:31:00,
2013-05-22 14:37:00,48.2,47.1,30.00,WSW,246,6.0,9.0,96,0.06,,,0.20,Wunderground v.1.15,2013-05-22 21:37:00,
2013-05-22 14:46:00,48.1,47.0,30.00,SW,234,6.0,6.0,96,0.00,,,0.20,Wunderground v.1.15,2013-05-22 21:46:00,
2013-05-22 14:56:00,48.5,47.4,30.00,SW,236,6.0,11.0,96,0.00,,,0.20,Wunderground v.1.15,2013-05-22 21:56:00,
2013-05-22 15:02:00,48.5,47.4,29.99,SW,227,6.0,11.0,96,0.00,,,0.20,Wunderground v.1.15,2013-05-22 22:02:00,
2013-05-22 15:12:00,48.2,47.1,30.00,West,274,7.0,12.0,96,0.10,,,0.22,Wunderground v.1.15,2013-05-22 22:12:00,
2013-05-22 15:21:00,48.2,47.1,30.00,West,265,7.0,11.0,96,0.05,,,0.22,Wunderground v.1.15,2013-05-22 22:21:00,
2013-05-22 15:31:00,48.4,47.3,30.00,WSW,245,11.0,21.0,96,0.00,,,0.22,Wunderground v.1.15,2013-05-22 22:31:00,
2013-05-22 15:37:00,48.4,47.3,30.00,WSW,255,13.0,21.0,96,0.00,,,0.22,Wunderground v.1.15,2013-05-22 22:37:00,
2013-05-22 15:46:00,48.0,46.6,30.00,West,277,12.0,20.0,95,0.00,,,0.22,Wunderground v.1.15,2013-05-22 22:46:00,
2013-05-22 15:57:00,48.5,47.4,30.00,West,259,12.0,12.0,96,0.00,,,0.22,Wunderground v.1.15,2013-05-22 22:57:00,
2013-05-22 16:06:00,48.6,47.2,30.00,WSW,258,11.0,17.0,95,0.00,,,0.22,Wunderground v.1.15,2013-05-22 23:06:00,
2013-05-22 16:16:00,48.6,47.2,30.00,WNW,287,12.0,18.0,95,0.00,,,0.22,Wunderground v.1.15,2013-05-22 23:16:00,
2013-05-22 16:22:00,48.2,46.6,30.00,West,272,12.0,17.0,94,0.00,,,0.22,Wunderground v.1.15,2013-05-22 23:22:00,
2013-05-22 16:32:00,48.5,47.1,30.01,West,270,10.0,13.0,95,0.00,,,0.22,Wunderground v.1.15,2013-05-22 23:32:00,
2013-05-22 16:41:00,48.1,46.7,30.01,West,270,11.0,11.0,95,0.00,,,0.23,Wunderground v.1.15,2013-05-22 23:41:00,
2013-05-22 16:52:00,48.3,46.9,30.01,West,275,10.0,10.0,95,0.00,,,0.23,Wunderground v.1.15,2013-05-22 23:52:00,
2013-05-22 17:02:00,48.6,47.2,30.01,West,263,9.0,15.0,95,0.00,,,0.24,Wunderground v.1.15,2013-05-23 00:02:00,
2013-05-22 17:11:00,48.6,47.2,30.01,West,260,11.0,17.0,95,0.00,,,0.24,Wunderground v.1.15,2013-05-23 00:11:00,
2013-05-22 17:22:00,48.1,46.7,30.01,West,270,10.0,10.0,95,0.00,,,0.24,Wunderground v.1.15,2013-05-23 00:22:00,
2013-05-22 17:31:00,48.1,46.5,30.01,West,267,11.0,17.0,94,0.00,,,0.25,Wunderground v.1.15,2013-05-23 00:31:00,
2013-05-22 17:41:00,48.3,46.7,30.01,WSW,244,11.0,11.0,94,0.00,,,0.25,Wunderground v.1.15,2013-05-23 00:41:00,
2013-05-22 17:46:00,48.5,46.9,30.01,West,275,10.0,14.0,94,0.00,,,0.25,Wunderground v.1.15,2013-05-23 00:46:00,
2013-05-22 17:52:00,48.7,47.3,30.01,WSW,257,9.0,12.0,95,0.00,,,0.25,Wunderground v.1.15,2013-05-23 00:52:00,
2013-05-22 18:01:00,48.8,47.4,30.01,West,267,8.0,12.0,95,0.00,,,0.25,Wunderground v.1.15,2013-05-23 01:01:00,
2013-05-22 18:11:00,48.4,47.0,30.01,WSW,253,9.0,14.0,95,0.00,,,0.26,Wunderground v.1.15,2013-05-23 01:11:00,
2013-05-22 18:17:00,48.4,47.0,30.01,West,263,9.0,14.0,95,0.00,,,0.26,Wunderground v.1.15,2013-05-23 01:17:00,
2013-05-22 18:26:00,48.6,47.2,30.01,WSW,240,8.0,12.0,95,0.00,,,0.26,Wunderground v.1.15,2013-05-23 01:26:00,
2013-05-22 18:37:00,48.3,46.7,30.01,West,262,9.0,14.0,94,0.00,,,0.26,Wunderground v.1.15,2013-05-23 01:37:00,
2013-05-22 18:46:00,48.6,47.2,30.01,West,267,6.0,10.0,95,0.00,,,0.27,Wunderground v.1.15,2013-05-23 01:46:00,
2013-05-22 18:52:00,48.4,47.0,30.01,WSW,242,6.0,11.0,95,0.00,,,0.27,Wunderground v.1.15,2013-05-23 01:52:00,
2013-05-22 18:57:00,48.5,47.1,30.01,West,265,7.0,11.0,95,0.00,,,0.27,Wunderground v.1.15,2013-05-23 01:57:00,
2013-05-22 19:02:00,48.5,47.1,30.01,WSW,250,8.0,8.0,95,0.00,,,0.28,Wunderground v.1.15,2013-05-23 02:02:00,
2013-05-22 19:12:00,48.3,46.9,30.01,WSW,254,7.0,7.0,95,0.00,,,0.28,Wunderground v.1.15,2013-05-23 02:12:00,
2013-05-22 19:21:00,48.2,46.8,30.01,WSW,244,7.0,13.0,95,0.00,,,0.28,Wunderground v.1.15,2013-05-23 02:21:00,
2013-05-22 19:32:00,48.2,46.8,30.01,WSW,247,8.0,13.0,95,0.00,,,0.29,Wunderground v.1.15,2013-05-23 02:32:00,
2013-05-22 19:41:00,47.5,46.1,30.01,SW,235,8.0,8.0,95,0.00,,,0.29,Wunderground v.1.15,2013-05-23 02:41:00,
2013-05-22 19:52:00,47.6,46.2,30.01,WSW,241,7.0,7.0,95,0.00,,,0.29,Wunderground v.1.15,2013-05-23 02:52:00,
2013-05-22 20:01:00,47.6,46.2,30.01,SW,217,5.0,9.0,95,0.00,,,0.29,Wunderground v.1.15,2013-05-23 03:01:00,
2013-05-22 20:12:00,47.5,46.1,30.01,SSW,210,6.0,8.0,95,0.00,,,0.30,Wunderground v.1.15,2013-05-23 03:12:00,
2013-05-22 20:17:00,47.5,46.1,30.01,SSW,205,5.0,8.0,95,0.00,,,0.30,Wunderground v.1.15,2013-05-23 03:17:00,
2013-05-22 20:22:00,47.4,46.0,30.01,SW,215,4.0,7.0,95,0.00,,,0.30,Wunderground v.1.15,2013-05-23 03:22:00,
2013-05-22 20:32:00,47.5,46.1,30.01,SW,215,3.0,6.0,95,0.17,,,0.33,Wunderground v.1.15,2013-05-23 03:32:00,
2013-05-22 20:41:00,47.4,46.0,30.01,SW,215,1.0,1.0,95,0.11,,,0.35,Wunderground v.1.15,2013-05-23 03:41:00,
2013-05-22 20:51:00,47.7,46.6,30.01,WSW,243,3.0,5.0,96,0.04,,,0.35,Wunderground v.1.15,2013-05-23 03:51:00,
2013-05-22 20:57:00,48.1,47.0,30.01,SW,217,5.0,7.0,96,0.00,,,0.35,Wunderground v.1.15,2013-05-23 03:57:00,
2013-05-22 21:02:00,48.2,47.1,30.01,WSW,257,7.0,7.0,96,0.00,,,0.35,Wunderground v.1.15,2013-05-23 04:02:00,
2013-05-22 21:11:00,48.3,47.2,30.01,West,265,6.0,10.0,96,0.00,,,0.35,Wunderground v.1.15,2013-05-23 04:11:00,
2013-05-22 22:16:00,47.4,46.3,30.02,West,262,5.0,13.0,96,0.04,,,0.46,Wunderground v.1.15,2013-05-23 05:16:00,
2013-05-22 22:26:00,47.5,46.4,30.02,WSW,241,4.0,6.0,96,0.04,,,0.46,Wunderground v.1.15,2013-05-23 05:26:00,
2013-05-22 22:31:00,47.5,46.4,30.02,WSW,241,3.0,5.0,96,0.04,,,0.46,Wunderground v.1.15,2013-05-23 05:31:00,
2013-05-22 22:42:00,47.7,46.6,30.02,WSW,242,3.0,3.0,96,0.00,,,0.47,Wunderground v.1.15,2013-05-23 05:42:00,
2013-05-22 22:52:00,47.6,46.5,30.02,West,264,4.0,7.0,96,0.00,,,0.47,Wunderground v.1.15,2013-05-23 05:52:00,
2013-05-22 23:02:00,47.0,45.6,30.02,WSW,245,5.0,8.0,95,0.05,,,0.48,Wunderground v.1.15,2013-05-23 06:02:00,
2013-05-22 23:11:00,46.6,45.5,30.01,WSW,243,4.0,7.0,96,0.00,,,0.48,Wunderground v.1.15,2013-05-23 06:11:00,
2013-05-22 23:17:00,46.7,45.6,30.01,SW,234,4.0,8.0,96,0.00,,,0.49,Wunderground v.1.15,2013-05-23 06:17:00,
2013-05-22 23:26:00,46.9,45.8,30.01,SW,232,4.0,8.0,96,0.00,,,0.49,Wunderground v.1.15,2013-05-23 06:26:00,
2013-05-22 23:36:00,46.6,45.5,30.01,SW,236,5.0,10.0,96,0.00,,,0.49,Wunderground v.1.15,2013-05-23 06:36:00,
2013-05-22 23:42:00,46.6,45.5,30.01,SW,235,5.0,5.0,96,0.00,,,0.49,Wunderground v.1.15,2013-05-23 06:42:00,
2013-05-22 23:47:00,46.6,45.5,30.01,SW,230,4.0,6.0,96,0.00,,,0.49,Wunderground v.1.15,2013-05-23 06:47:00,
2013-05-22 23:57:00,46.9,45.8,30.01,SW,227,4.0,7.0,96,0.00,,,0.49,Wunderground v.1.15,2013-05-23 06:57:00,